Aviano Usafb, Italy

3:45 PM CET on December 29, 2014 (GMT +0100)
IPORDENO6 | Change Station
CLOSE
Current Station
Personal Weather Station
Location: Roveredo In Piano, PORDENONE
Elevation: 325 ft
Nearby Weather Stations
Active Advisory: Wind

Elev 325 ft 46.01 °N, 12.61 °E | Updated 4 seconds ago

Clear
Clear
37.0 °F
Feels Like 37 °F
N
0.0
Wind Variable Wind from SE
Gusts 0.7 mph

Today
High -- | Low -- °F
--% Chance of Precip.
Yesterday
High -- | Low -- °F
Precip. -- in
7:51 AM 4:31 PM
First Quarter, 59% visible
Pressure 30.21 in
Visibility 6.2 miles
Clouds Clear
Windchill 37 °F
Dew Point 19 °F
Humidity 48%
Rainfall 0.00 in
Snow Depth Not available.
UV 1 out of 12
Pollen Not available.
Air Quality Not available.
Flu Activity Not available.
METAR LIYW 291358Z AUTO 03007KT 9999 CLR 03/M08 A3018 RMK AO2 SLP230 T00281079

More Conditions Fewer Conditions

Pressure 30.21 in
Visibility 6.2 miles
Clouds Clear
Windchill 37 °F
Dew Point 19 °F
Humidity 48%
Rainfall 0.00 in
Snow Depth Not available.
UV 1 out of 12
Pollen Not available.
Air Quality Not available.
Flu Activity Not available.
METAR LIYW 291358Z AUTO 03007KT 9999 CLR 03/M08 A3018 RMK AO2 SLP230 T00281079

More Conditions Fewer Conditions

10-Day Weather Forecast

Almanac

Astronomy

Dec. 29, 2014 Rise Set
Actual Time
Civil Twilight
Nautical Twilight
Astronomical Twilight
Moon
Length of Visible Light
Length of Day
Tomorrow will be .
, % of the Moon is Illuminated

Today's Extremes

Country Highs Country Lows

Community

WunderPhotos

Upload Photos

1,781,591 photos uploaded!

WunderBlogs® & News

Nearby

Air Quality

  Air Quality AQ Index Pollutant
Not available.

Snow Depth

Station Depth Elevation

Earthquake Activity

City Distance Mag. Time & Date
Minimum magnitude displayed is 2.5.

Coastal Water Temperatures

Place Temperature

Nearby Weather Stations